YLK weather

Barrie-Orillia (Lake Simcoe Regional Airport)
Barrie-Orillia, Ontario, Canada

Public forecast

Using degrees Celsius for public forecast. Weather courtesy of forecast.io.

METAR (pilot weather report)

Closest report is CFB Borden, 20.0 nm (37.0 km) SW. Retrieved 2019/01/17 08:00 UTC (38 minutes ago):

CYBN 170800Z AUTO 00000KT 9SM BKN038 M20/M21 A3034 RMK SLP295

TAF (pilot weather forecast)

Forecast is more than 12 hours old.

Closest forecast is CFB Borden, 20.0 nm (37.0 km) SW. Retrieved 2019/01/16 00:33 UTC (1 day ago):

TAF TAF CYBN 162330Z 1700/1712 32005KT P6SM -SHSN OVC025 TEMPO 1700/1706 3/4SM -SHSN VV003 FM170600 VRB03KT P6SM SCT025 RMK FCST BASED ON AUTO OBS. NXT FCST BY 170600Z